Plaza, Washington
Current Conditions -  °F | °C
As of 3:53 PM on Sunday 23 Nov 2014 (Local Time) from KGEG Reporting Station
Broken Clouds Broken Clouds  
Wind Chill: 30°   Ceiling: 16000
Heat Index: 40°   Visibility: 10mi
Dew Point: 35°   Wind: 22mph
Humidity: 83%   Direction: 240°WSW
Pressure: 29.97"   Gusts: NA
Location:  47.2196°N, 117.453°W
Report Text: KGEG 232353Z 24019KT 10SM FEW018 BKN160 04/02 A2997 RMK AO2 PK WND 24029/2308 SLP164 60001 T00440017 10050 20022 55002
Loading
Personal Weather Stations






























Interactive Weather Map New forecast layout! Learn more

10-Day Weather Forecast

Advertisements
Track Severe Weather on mobile